Flight Track Log - Related Links

Times and Time Zones

All times are in EDT time to prevent confusion due to time zone crossing. See the N143DE flight status page for this flight to view local times or setup timezone preferences in your user account.

Time Position Orientation Groundspeed Altitude Reporting Facility
EDT Latitude Longitude Course Direction KTS MPH feet Rate Location/Type
Wed 04:16:10 PM 34.4419 -84.6558 358° North 219 252 9,000  Level Atlanta Center
Wed 04:17:10 PM 34.5044 -84.6589 358° North 219 252 9,900 850 Climbing Atlanta Center
Wed 04:18:10 PM 34.5628 -84.6592 360° North 214 246 10,700 800 Climbing Atlanta Center
Wed 04:19:10 PM 34.6233 -84.6622 358° North 214 246 11,500 800 Climbing Atlanta Center
Wed 04:20:10 PM 34.6858 -84.6653 358° North 214 246 12,300 750 Climbing Atlanta Center
Wed 04:21:10 PM 34.7464 -84.6631 North 214 246 13,000 350 Climbing Atlanta Center
Wed 04:22:10 PM 34.8069 -84.6711 354° North 214 246 13,000  Level Atlanta Center
Wed 04:23:10 PM 34.7878 -84.7192 244° Southwest 97 112 13,000 -200 Level Atlanta Center
Wed 04:24:10 PM 34.7192 -84.7083 173° South 122 140 12,600 -700 Descending Atlanta Center
Wed 04:25:10 PM 34.6483 -84.6978 173° South 194 223 11,600 -900 Descending Atlanta Center
Wed 04:26:10 PM 34.5753 -84.6897 175° South 237 273 10,800 -850 Descending Atlanta Center
Wed 04:27:10 PM 34.5042 -84.6792 173° South 256 295 9,900 -850 Descending Atlanta Center
Wed 04:28:10 PM 34.4333 -84.6633 170° South 261 300 9,100 -800 Descending Atlanta Center
Wed 04:29:10 PM 34.3647 -84.6528 173° South 256 295 8,300 -900 Descending Atlanta Center
Wed 04:30:10 PM 34.2958 -84.6422 173° South 256 295 7,300 -1,450 Descending Atlanta Center
Wed 04:31:10 PM 34.2228 -84.6317 173° South 256 295 5,400 -1,850 Descending Atlanta Center
Wed 04:32:10 PM 34.1581 -84.6211 172° South 251 289 3,600 -1,300 Descending Atlanta Center
Wed 04:33:10 PM 34.1103 -84.5908 152° Southeast 222 255 2,800 -600 Descending Atlanta Center
Wed 04:34:10 PM 34.0644 -84.5678 157° South 194 223 2,400 -550 Descending Atlanta Center
Wed 04:35:10 PM 34.0228 -84.5625 174° South 170 196 1,700 -450 Descending Atlanta Center
Wed 04:36:10 PM 33.9933 -84.5725 196° South 133 153 1,500 1,900 Descending Atlanta Center
Wed 04:37:10 PM 33.9581 -84.5722 180° South 133 153 5,500 4,000 Climbing Atlanta Center
Wed 04:39:00 PM 34.0000 -84.5833 345° North  Level FlightAware Approximate
Wed 04:46:00 PM 34.0132 -84.5970 328° Northwest  Level Estimated
Wed 04:47:00 PM 34.0132 -84.5970 345° North  Level Estimated
Wed 04:48:00 PM 34.0132 -84.5970 345° North  Level Estimated
Wed 04:49:00 PM 34.0132 -84.5970 358° North  Level Estimated
Wed 04:50:00 PM 34.0132 -84.5970 351° North  Level Estimated
Wed 04:51:00 PM 34.0132 -84.5970 North  Level Estimated
Wed 04:52:00 PM 34.0132 -84.5970 354° North  Level Estimated
Wed 04:53:00 PM 34.0132 -84.5970 345° North  Level Estimated
Wed 04:54:00 PM 34.0132 -84.5970 345° North  Level Estimated

Login

Don't have an account? Register now (free) for customized features, flight alerts, and more!